Terminal Aerodrome Forecast
Issued by NWS Sterling, VA

Current Version | Previous Version | Graphics & Text | Print | Product List | Glossary On
Versions: 1 2 3 4 5 6 7 8 9 10 11 12 13 14 15 16 17 18 19 20 21 22 23
000
FTUS41 KLWX 041120
TAFDCA
TAF
KDCA 041120Z 0412/0512 32004KT P6SM BKN200
     FM050300 15004KT 6SM -RA BR OVC050
     FM050600 16005KT 6SM -RA BR OVC020
     FM050800 17005KT 6SM -RA BR OVC008=

USA.gov is the U.S. government's official web portal to all federal, state and local government web resources and services.